Time;durP1;ratioP1;P1;durP2;ratioP2;P2;SDS_P1;SDS_P2;PMS_P1;PMS_P2;Temp;Humidity;BMP_temperature;BMP_pressure;BME280_temperature;BME280_humidity;BME280_pressure;Samples;Min_cycle;Max_cycle;Signal;HPM_P1;HPM_P2
2024/04/21 00:03:58;;;;;;;3.15;1.35;;;;;;;9.06;82.43;100286.59;11458206;25;20433;-64
2024/04/21 00:09:00;;;;;;;2.13;1.20;;;;;;;9.03;82.39;100298.28;11408743;25;20073;-64
2024/04/21 00:14:01;;;;;;;1.23;1.10;;;;;;;8.87;83.15;100302.16;11437618;25;20800;-64
2024/04/21 00:19:03;;;;;;;2.03;1.02;;;;;;;8.77;86.65;100291.38;11461994;25;20834;-64
2024/04/21 00:24:05;;;;;;;2.13;1.13;;;;;;;8.90;86.04;100286.84;11455446;25;20012;-64
2024/04/21 00:29:08;;;;;;;3.38;1.38;;;;;;;8.95;86.78;100278.59;11364874;25;20020;-64
2024/04/21 00:34:11;;;;;;;1.30;0.90;;;;;;;9.05;86.40;100276.91;11393863;25;20125;-62
2024/04/21 00:39:13;;;;;;;1.45;0.88;;;;;;;8.98;86.66;100265.91;11431638;25;20000;-64
2024/04/21 00:44:15;;;;;;;2.63;1.33;;;;;;;8.65;84.06;100263.94;11392439;25;20008;-63
2024/04/21 00:49:17;;;;;;;0.90;0.50;;;;;;;8.66;82.81;100252.34;11427553;25;20400;-63
2024/04/21 00:54:18;;;;;;;1.77;0.50;;;;;;;8.55;82.13;100262.91;11423660;25;20795;-66
2024/04/21 00:59:22;;;;;;;1.35;0.50;;;;;;;8.38;82.16;100251.66;11417396;25;20072;-63
2024/04/21 01:04:26;;;;;;;1.15;0.57;;;;;;;8.37;80.61;100251.75;11435318;25;20590;-64
2024/04/21 01:09:30;;;;;;;0.82;0.40;;;;;;;8.44;81.33;100261.84;11395805;25;20013;-63
2024/04/21 01:14:31;;;;;;;0.63;0.30;;;;;;;8.55;81.22;100265.53;11386755;25;20009;-64
2024/04/21 01:19:33;;;;;;;1.90;0.43;;;;;;;8.38;80.17;100256.94;11446327;25;20540;-63
2024/04/21 01:24:34;;;;;;;0.60;0.40;;;;;;;7.87;81.08;100255.19;11443095;25;20654;-63
2024/04/21 01:29:35;;;;;;;1.23;0.22;;;;;;;7.79;82.23;100257.53;11414005;25;20732;-64
2024/04/21 01:34:38;;;;;;;0.70;0.20;;;;;;;8.09;80.31;100251.91;11437254;25;20012;-62
2024/04/21 01:39:40;;;;;;;0.15;0.10;;;;;;;8.09;78.48;100254.56;11396047;25;20102;-64
2024/04/21 01:44:42;;;;;;;0.17;0.05;;;;;;;8.28;76.14;100269.16;11428661;25;20001;-65
2024/04/21 01:49:45;;;;;;;0.38;0.10;;;;;;;8.03;76.65;100265.59;11402394;25;20403;-64
2024/04/21 01:54:46;;;;;;;0.08;0.00;;;;;;;8.20;74.80;100260.91;11394752;25;20067;-63
2024/04/21 01:59:48;;;;;;;0.20;0.10;;;;;;;8.23;74.00;100266.00;11402505;25;20527;-63
2024/04/21 02:04:50;;;;;;;1.45;0.03;;;;;;;7.81;74.21;100268.88;11413284;25;20009;-63
2024/04/21 02:09:52;;;;;;;0.30;0.20;;;;;;;7.75;73.75;100262.19;11415129;25;20005;-64
2024/04/21 02:14:53;;;;;;;0.60;0.20;;;;;;;7.85;72.40;100274.81;11423833;25;20089;-63
2024/04/21 02:19:57;;;;;;;0.70;0.20;;;;;;;7.92;73.10;100278.75;11443528;25;19998;-64
2024/04/21 02:24:59;;;;;;;2.80;0.65;;;;;;;7.86;71.72;100272.03;11469295;25;20000;-63
2024/04/21 02:30:03;;;;;;;1.40;0.13;;;;;;;8.05;72.05;100278.75;11423454;25;20009;-63
2024/04/21 02:35:08;;;;;;;2.20;0.52;;;;;;;8.05;70.36;100276.94;11420439;25;20001;-64
2024/04/21 02:40:10;;;;;;;2.60;0.80;;;;;;;8.08;70.35;100274.06;11432388;25;19996;-63
2024/04/21 02:45:12;;;;;;;4.82;0.55;;;;;;;7.79;71.90;100276.94;11423998;25;20012;-64
2024/04/21 02:50:13;;;;;;;1.27;0.30;;;;;;;7.99;71.26;100272.06;11436408;25;20008;-65
2024/04/21 02:55:16;;;;;;;2.78;0.98;;;;;;;7.49;71.17;100266.63;11423813;25;20004;-64
2024/04/21 03:00:18;;;;;;;3.88;1.25;;;;;;;7.69;69.83;100265.25;11463188;25;20056;-63
2024/04/21 03:05:19;;;;;;;4.93;0.90;;;;;;;7.51;70.48;100263.88;11414594;25;20005;-64
2024/04/21 03:10:22;;;;;;;2.88;0.90;;;;;;;7.55;68.03;100266.22;11420665;25;20016;-64
2024/04/21 03:15:24;;;;;;;5.03;1.30;;;;;;;7.60;68.67;100247.34;11427218;25;20688;-63
2024/04/21 03:20:25;;;;;;;2.83;1.20;;;;;;;7.58;67.93;100259.84;11421654;25;21136;-64
2024/04/21 03:25:27;;;;;;;2.55;0.95;;;;;;;7.49;67.91;100256.03;11416664;25;20008;-63
2024/04/21 03:30:28;;;;;;;3.90;1.23;;;;;;;7.59;67.72;100269.50;11404912;25;20641;-63
2024/04/21 03:35:32;;;;;;;4.97;1.10;;;;;;;7.54;67.75;100268.97;11406438;25;20064;-64
2024/04/21 03:40:34;;;;;;;3.63;1.38;;;;;;;7.58;66.69;100273.09;11394252;25;20024;-63
2024/04/21 03:45:35;;;;;;;3.95;1.25;;;;;;;7.28;66.89;100237.16;11417960;25;20044;-64
2024/04/21 03:50:37;;;;;;;7.72;2.33;;;;;;;7.36;66.83;100265.75;11366774;25;20020;-63
2024/04/21 03:55:39;;;;;;;6.18;1.42;;;;;;;7.42;66.15;100260.88;11430340;25;19996;-70
2024/04/21 04:00:40;;;;;;;5.65;1.27;;;;;;;7.33;66.01;100258.84;11463000;25;19998;-63
2024/04/21 04:05:44;;;;;;;5.18;1.73;;;;;;;7.00;66.14;100249.53;11410496;25;20004;-63
2024/04/21 04:10:45;;;;;;;6.50;1.75;;;;;;;7.17;66.01;100256.38;11406561;25;20841;-64
2024/04/21 04:15:48;;;;;;;6.95;1.60;;;;;;;7.19;64.90;100261.56;11370244;25;20058;-64
2024/04/21 04:20:50;;;;;;;6.13;1.58;;;;;;;6.80;65.77;100252.63;11384511;25;20069;-63
2024/04/21 04:25:51;;;;;;;3.90;1.20;;;;;;;6.66;65.96;100259.66;11403995;25;20468;-64
2024/04/21 04:30:53;;;;;;;5.47;1.60;;;;;;;6.77;66.29;100253.69;11429692;25;19997;-63
2024/04/21 04:35:56;;;;;;;4.85;1.33;;;;;;;6.75;66.25;100268.81;11458671;25;20418;-64
2024/04/21 04:40:58;;;;;;;4.00;1.05;;;;;;;6.73;66.46;100273.34;11467017;25;19995;-63
2024/04/21 04:45:59;;;;;;;5.63;2.00;;;;;;;6.72;66.86;100234.63;11459458;25;20001;-64
2024/04/21 04:51:01;;;;;;;10.15;2.45;;;;;;;6.68;66.60;100270.13;11417645;25;20017;-67
2024/04/21 04:56:03;;;;;;;5.18;1.38;;;;;;;6.54;67.50;100269.25;11445788;25;20709;-64
2024/04/21 05:01:05;;;;;;;4.47;1.52;;;;;;;6.61;68.62;100269.69;11465349;25;20017;-65
2024/04/21 05:06:07;;;;;;;6.72;1.60;;;;;;;6.39;66.87;100264.91;11479953;25;20000;-65
2024/04/21 05:11:09;;;;;;;4.97;1.33;;;;;;;6.50;67.84;100264.22;11370068;25;20081;-64
2024/04/21 05:16:11;;;;;;;6.07;1.63;;;;;;;6.67;66.85;100271.94;11442697;25;20332;-65
2024/04/21 05:21:15;;;;;;;4.57;1.37;;;;;;;6.48;68.15;100274.91;11462704;25;20068;-64
2024/04/21 05:26:16;;;;;;;5.55;1.92;;;;;;;6.61;67.82;100277.63;11379119;25;20255;-64
2024/04/21 05:31:18;;;;;;;4.85;1.17;;;;;;;6.72;67.27;100272.53;11353644;25;20004;-64
2024/04/21 05:36:20;;;;;;;4.80;1.30;;;;;;;6.66;66.63;100264.13;11458432;25;20077;-64
2024/04/21 05:41:21;;;;;;;9.20;1.67;;;;;;;6.72;67.20;100272.53;11422288;25;20064;-63
2024/04/21 05:46:23;;;;;;;3.97;1.33;;;;;;;6.55;67.94;100280.66;11434994;25;20001;-64
2024/04/21 05:51:25;;;;;;;5.30;1.73;;;;;;;6.48;67.46;100271.41;11381776;25;20017;-64
2024/04/21 05:56:28;;;;;;;6.35;1.27;;;;;;;6.32;67.60;100285.59;11457452;25;20007;-65
2024/04/21 06:01:31;;;;;;;5.77;1.10;;;;;;;6.22;67.83;100284.47;11429015;25;20002;-64
2024/04/21 06:06:32;;;;;;;8.27;2.17;;;;;;;6.20;69.55;100286.38;11396833;25;20002;-65
2024/04/21 06:11:36;;;;;;;9.52;2.67;;;;;;;6.28;69.48;100289.38;11452565;25;20016;-65
2024/04/21 06:16:38;;;;;;;8.45;1.92;;;;;;;6.16;69.29;100285.69;11416208;25;20483;-67
2024/04/21 06:21:39;;;;;;;5.45;1.40;;;;;;;6.39;70.38;100290.50;11457775;25;20374;-68
2024/04/21 06:26:41;;;;;;;4.07;1.27;;;;;;;6.25;69.30;100291.38;11426710;25;20008;-68
2024/04/21 06:31:46;;;;;;;;;;;;;;;6.46;69.84;100297.13;11451432;25;20003;-68
2024/04/21 06:36:48;;;;;;;4.20;1.60;;;;;;;6.68;68.44;100296.59;11433796;25;19935;-68
2024/04/21 06:41:51;;;;;;;3.10;1.52;;;;;;;6.80;68.58;100294.97;11443121;25;20034;-68
2024/04/21 06:46:52;;;;;;;3.80;1.60;;;;;;;6.80;68.15;100294.97;11451212;25;19997;-68
2024/04/21 06:51:55;;;;;;;3.05;1.55;;;;;;;6.98;67.58;100288.50;11454495;25;20016;-70
2024/04/21 06:56:58;;;;;;;2.55;0.93;;;;;;;7.07;66.15;100293.19;11423254;25;20000;-69
2024/04/21 07:02:00;;;;;;;3.97;1.20;;;;;;;7.18;66.12;100300.44;11440129;25;20343;-68
2024/04/21 07:07:02;;;;;;;4.55;0.98;;;;;;;7.06;65.60;100295.94;11464137;25;20059;-68
2024/04/21 07:12:04;;;;;;;3.63;1.00;;;;;;;7.18;63.97;100296.94;11416746;25;20020;-67
2024/04/21 07:17:07;;;;;;;3.90;1.13;;;;;;;7.24;63.59;100293.88;11481364;25;20012;-70
2024/04/21 07:22:09;;;;;;;4.15;1.02;;;;;;;7.23;64.65;100319.50;11445968;25;20010;-67
2024/04/21 07:27:13;;;;;;;3.78;0.93;;;;;;;7.22;64.73;100319.59;11475803;25;20089;-68
2024/04/21 07:32:16;;;;;;;2.60;1.13;;;;;;;7.21;66.66;100331.16;11423189;25;20008;-69
2024/04/21 07:37:17;;;;;;;6.90;1.80;;;;;;;7.15;67.96;100316.53;11466620;25;20061;-68
2024/04/21 07:42:19;;;;;;;3.13;1.30;;;;;;;7.15;69.95;100342.16;11457118;25;20103;-69
2024/04/21 07:47:20;;;;;;;5.72;1.55;;;;;;;6.90;74.05;100335.78;11412345;25;20931;-71
2024/04/21 07:52:22;;;;;;;2.65;0.98;;;;;;;6.99;74.23;100348.41;11415017;25;20403;-69
2024/04/21 07:57:24;;;;;;;4.45;1.15;;;;;;;6.79;75.20;100346.22;11438517;25;19998;-68
2024/04/21 08:02:28;;;;;;;4.03;1.02;;;;;;;7.02;74.47;100339.44;11440371;25;20729;-68
2024/04/21 08:07:31;;;;;;;3.38;1.10;;;;;;;6.87;75.66;100355.34;11441868;25;20478;-68
2024/04/21 08:12:33;;;;;;;3.38;1.58;;;;;;;6.81;75.51;100357.53;11389787;25;20012;-69
2024/04/21 08:17:34;;;;;;;3.30;1.55;;;;;;;7.00;75.85;100366.00;11467463;25;20044;-68
2024/04/21 08:22:36;;;;;;;3.92;1.77;;;;;;;7.03;76.75;100371.09;11422760;25;20032;-67
2024/04/21 08:27:39;;;;;;;3.08;1.50;;;;;;;7.01;76.28;100375.66;11368089;25;20124;-64
2024/04/21 08:32:42;;;;;;;2.83;1.23;;;;;;;6.86;74.89;100368.66;11456159;25;20028;-63
2024/04/21 08:37:44;;;;;;;1.77;0.73;;;;;;;6.83;75.96;100371.50;11457354;25;20016;-64
2024/04/21 08:42:48;;;;;;;1.17;0.50;;;;;;;6.78;75.85;100386.84;11362836;25;20004;-64
2024/04/21 08:47:50;;;;;;;2.33;0.80;;;;;;;6.59;76.77;100387.97;11463351;25;20076;-64
2024/04/21 08:52:52;;;;;;;1.05;0.47;;;;;;;6.68;76.19;100392.69;11384650;25;20332;-63
2024/04/21 08:57:56;;;;;;;2.70;0.50;;;;;;;6.54;76.57;100388.28;11415303;25;20013;-64
2024/04/21 09:02:58;;;;;;;0.30;0.15;;;;;;;6.59;77.16;100398.56;11407639;25;19998;-63
2024/04/21 09:07:59;;;;;;;0.60;0.20;;;;;;;6.54;77.16;100382.09;11475298;25;20723;-63
2024/04/21 09:13:01;;;;;;;0.93;0.30;;;;;;;6.34;78.26;100401.84;11473943;25;20076;-64
2024/04/21 09:18:04;;;;;;;0.28;0.10;;;;;;;6.42;76.97;100404.03;11394773;25;19997;-62
2024/04/21 09:23:07;;;;;;;0.70;0.20;;;;;;;5.82;80.20;100398.69;11441971;25;20070;-63
2024/04/21 09:28:08;;;;;;;2.50;0.93;;;;;;;5.98;79.40;100424.25;11474953;25;20023;-64
2024/04/21 09:33:10;;;;;;;0.73;0.50;;;;;;;5.78;80.37;100409.50;11379314;25;20025;-64
2024/04/21 09:38:12;;;;;;;2.17;0.80;;;;;;;6.01;81.00;100427.53;11440271;25;20012;-65
2024/04/21 09:43:14;;;;;;;2.00;1.73;;;;;;;5.98;81.56;100409.22;11411511;25;20004;-63
2024/04/21 09:48:18;;;;;;;4.30;3.70;;;;;;;6.33;81.34;100443.28;11418759;25;20066;-63
2024/04/21 09:53:20;;;;;;;2.35;1.80;;;;;;;6.36;81.83;100442.25;11465799;25;20011;-64
2024/04/21 09:58:25;;;;;;;2.60;2.30;;;;;;;6.57;83.20;100437.47;11435149;25;19993;-64
2024/04/21 10:03:29;;;;;;;1.98;1.63;;;;;;;6.63;83.20;100442.38;11426350;25;20000;-63
2024/04/21 10:08:31;;;;;;;3.75;2.97;;;;;;;6.55;84.54;100431.44;11388015;25;20045;-64
2024/04/21 10:13:34;;;;;;;3.42;2.55;;;;;;;6.66;84.79;100442.19;11467075;25;19994;-62
2024/04/21 10:18:35;;;;;;;2.55;2.35;;;;;;;6.92;85.71;100434.47;11405763;25;20016;-63
2024/04/21 10:23:40;;;;;;;2.20;1.98;;;;;;;6.94;85.08;100435.19;11437547;25;20467;-62
2024/04/21 10:28:44;;;;;;;2.50;2.30;;;;;;;7.17;84.87;100438.19;11400339;25;20001;-62
2024/04/21 10:33:47;;;;;;;2.55;2.35;;;;;;;7.37;83.63;100444.88;11476650;25;20001;-62
2024/04/21 10:38:55;;;;;;;3.85;3.17;;;;;;;7.59;84.01;100450.47;11457960;25;20033;-63
2024/04/21 10:43:58;;;;;;;2.67;2.10;;;;;;;7.60;82.76;100433.63;11449977;25;20032;-63
2024/04/21 10:49:00;;;;;;;2.85;2.50;;;;;;;7.86;80.78;100448.78;11464069;25;20017;-63
2024/04/21 10:54:02;;;;;;;2.67;2.25;;;;;;;7.95;78.81;100459.63;11482684;25;20002;-63
2024/04/21 10:59:05;;;;;;;2.75;2.50;;;;;;;7.99;79.09;100454.09;11448426;25;20020;-62
2024/04/21 11:04:07;;;;;;;2.95;1.88;;;;;;;8.11;78.08;100459.44;11445135;25;20001;-63
2024/04/21 11:09:10;;;;;;;2.83;1.88;;;;;;;8.20;76.91;100459.81;11440499;25;20013;-62
2024/04/21 11:14:12;;;;;;;2.45;2.00;;;;;;;8.24;77.08;100453.31;11432154;25;20107;-62
2024/04/21 11:19:14;;;;;;;2.65;1.98;;;;;;;8.48;77.84;100457.00;11425582;25;20000;-64
2024/04/21 11:24:16;;;;;;;3.17;1.88;;;;;;;8.84;76.47;100451.88;11450618;25;20454;-62
2024/04/21 11:29:18;;;;;;;3.35;1.70;;;;;;;9.29;71.93;100456.69;11419639;25;20005;-64
2024/04/21 11:34:20;;;;;;;1.88;1.40;;;;;;;9.45;69.93;100462.59;11424729;25;20001;-63
2024/04/21 11:39:22;;;;;;;1.55;1.40;;;;;;;9.59;66.98;100463.41;11428548;25;20407;-63
2024/04/21 11:44:25;;;;;;;2.75;1.33;;;;;;;10.03;66.36;100459.28;11423004;25;20723;-62
2024/04/21 11:49:34;;;;;;;2.08;1.85;;;;;;;9.75;64.18;100477.28;11434464;25;20542;-64
2024/04/21 11:54:36;;;;;;;3.17;1.83;;;;;;;9.51;65.69;100472.78;11462470;25;20020;-64
2024/04/21 11:59:41;;;;;;;2.95;1.60;;;;;;;9.66;67.17;100477.97;11470038;25;20459;-63
2024/04/21 12:04:43;;;;;;;2.20;2.00;;;;;;;9.95;63.88;100485.59;11433022;25;20011;-63
2024/04/21 12:09:44;;;;;;;1.80;1.67;;;;;;;9.61;63.08;100482.75;11461440;25;20421;-62
2024/04/21 12:14:46;;;;;;;1.58;1.48;;;;;;;9.20;62.53;100488.28;11460178;25;20016;-63
2024/04/21 12:19:49;;;;;;;2.13;1.80;;;;;;;8.97;62.79;100489.06;11455388;25;20069;-64
2024/04/21 12:24:51;;;;;;;2.10;1.90;;;;;;;8.98;63.79;100496.91;11390378;25;20358;-66
2024/04/21 12:29:52;;;;;;;4.20;3.20;;;;;;;9.79;62.60;100492.06;11436969;25;20546;-62
2024/04/21 12:34:56;;;;;;;2.00;1.80;;;;;;;9.99;58.57;100503.03;11436107;25;20031;-62
2024/04/21 12:39:59;;;;;;;2.72;2.40;;;;;;;9.83;59.43;100496.19;11441841;25;20043;-63
2024/04/21 12:45:01;;;;;;;2.00;1.80;;;;;;;10.42;59.01;100495.34;11443784;25;20000;-61
2024/04/21 12:50:04;;;;;;;3.75;3.40;;;;;;;10.99;55.62;100486.59;11468322;25;20004;-62
2024/04/21 12:55:08;;;;;;;2.50;2.30;;;;;;;11.60;54.09;100495.03;11448471;25;20003;-63
2024/04/21 13:00:11;;;;;;;2.47;2.28;;;;;;;12.18;50.93;100492.09;11410778;25;20006;-63
2024/04/21 13:05:14;;;;;;;1.90;1.80;;;;;;;12.51;47.83;100481.38;11448708;25;20001;-64
2024/04/21 13:10:16;;;;;;;2.53;2.33;;;;;;;12.45;47.07;100472.06;11439587;25;20027;-62
2024/04/21 13:15:17;;;;;;;2.08;1.98;;;;;;;11.98;47.74;100491.09;11453629;25;20012;-61
2024/04/21 13:20:19;;;;;;;3.85;2.10;;;;;;;11.89;45.58;100494.50;11416752;25;20009;-62
2024/04/21 13:25:21;;;;;;;2.78;2.03;;;;;;;11.83;45.41;100484.34;11424663;25;19997;-63
2024/04/21 13:30:22;;;;;;;1.55;1.33;;;;;;;12.00;46.16;100486.47;11369039;25;20008;-64
2024/04/21 13:35:24;;;;;;;1.52;1.30;;;;;;;12.15;46.78;100486.19;11364361;25;20112;-62
2024/04/21 13:40:25;;;;;;;2.33;1.80;;;;;;;12.43;45.73;100505.19;11418949;25;20049;-63
2024/04/21 13:45:27;;;;;;;2.05;1.40;;;;;;;11.95;45.44;100496.69;11462341;25;20032;-63
2024/04/21 13:50:28;;;;;;;1.50;1.40;;;;;;;12.10;46.20;100499.03;11434299;25;20082;-62
2024/04/21 13:55:32;;;;;;;1.17;1.02;;;;;;;11.82;44.38;100493.31;11443213;25;20084;-63
2024/04/21 14:00:34;;;;;;;1.55;1.10;;;;;;;12.06;43.54;100495.78;11451672;25;19997;-63
2024/04/21 14:05:36;;;;;;;2.08;1.40;;;;;;;12.27;42.92;100509.16;11459568;25;19994;-63
2024/04/21 14:10:38;;;;;;;1.20;1.10;;;;;;;12.15;43.30;100496.84;11449496;25;20016;-63
2024/04/21 14:15:42;;;;;;;2.13;1.48;;;;;;;12.02;44.47;100503.22;11431548;25;19993;-64
2024/04/21 14:20:43;;;;;;;1.58;1.27;;;;;;;12.27;44.50;100509.16;11358632;25;20446;-63
2024/04/21 14:25:45;;;;;;;1.83;1.10;;;;;;;11.81;43.77;100513.81;11436048;25;20073;-62
2024/04/21 14:30:47;;;;;;;1.48;1.00;;;;;;;11.61;45.64;100512.72;11425424;25;20792;-62
2024/04/21 14:35:48;;;;;;;1.30;1.15;;;;;;;11.26;45.10;100516.41;11409609;25;20036;-61
2024/04/21 14:40:53;;;;;;;2.43;1.37;;;;;;;10.96;45.36;100541.81;11462421;25;20075;-63
2024/04/21 14:45:55;;;;;;;1.42;1.10;;;;;;;10.89;45.27;100539.75;11424150;25;20004;-62
2024/04/21 14:50:59;;;;;;;3.15;1.30;;;;;;;10.83;45.85;100546.41;11430858;25;20000;-63
2024/04/21 14:56:04;;;;;;;1.92;1.73;;;;;;;10.78;45.90;100559.22;11453006;25;20012;-63
2024/04/21 15:01:06;;;;;;;2.50;1.42;;;;;;;10.77;45.83;100552.19;11442621;25;20291;-63
2024/04/21 15:06:07;;;;;;;2.05;1.88;;;;;;;11.01;46.10;100559.28;11455659;25;20011;-62
2024/04/21 15:11:09;;;;;;;2.03;1.52;;;;;;;11.18;45.49;100572.09;11436628;25;20575;-64
2024/04/21 15:16:11;;;;;;;2.83;1.77;;;;;;;10.90;45.52;100558.28;11464410;25;20049;-63
2024/04/21 15:21:15;;;;;;;1.53;1.40;;;;;;;11.00;45.28;100568.22;11369175;25;20005;-63
2024/04/21 15:26:17;;;;;;;3.08;1.67;;;;;;;11.08;46.43;100571.13;11426769;25;20238;-62
2024/04/21 15:31:18;;;;;;;2.22;2.03;;;;;;;11.13;45.39;100568.97;11473803;25;20000;-63
2024/04/21 15:36:20;;;;;;;1.40;1.30;;;;;;;11.03;45.51;100579.47;11414183;25;20005;-63
2024/04/21 15:41:23;;;;;;;2.78;1.85;;;;;;;10.92;45.31;100593.63;11383825;25;20012;-63
2024/04/21 15:46:27;;;;;;;3.13;1.88;;;;;;;10.88;44.75;100594.81;11453752;25;20002;-62
2024/04/21 15:51:29;;;;;;;;;;;;;;;10.66;44.78;100608.06;11458155;25;19997;-64
2024/04/21 15:56:31;;;;;;;2.10;1.85;;;;;;;10.39;45.13;100598.53;11469322;25;19923;-63
2024/04/21 16:01:33;;;;;;;2.03;1.55;;;;;;;10.48;44.36;100619.16;11428166;25;19996;-61
2024/04/21 16:06:35;;;;;;;2.28;1.77;;;;;;;10.52;44.99;100622.41;11402441;25;20009;-63
2024/04/21 16:11:37;;;;;;;3.05;2.30;;;;;;;10.26;45.11;100602.06;11466788;25;20067;-63
2024/04/21 16:16:39;;;;;;;2.80;2.13;;;;;;;10.25;46.16;100616.34;11447565;25;20004;-63
2024/04/21 16:21:41;;;;;;;2.20;1.92;;;;;;;10.35;46.18;100623.66;11407688;25;19992;-62
2024/04/21 16:26:44;;;;;;;2.58;2.08;;;;;;;10.34;46.19;100635.25;11449972;25;20560;-63
2024/04/21 16:31:48;;;;;;;1.85;1.65;;;;;;;10.14;46.32;100621.56;11463650;25;20001;-63
2024/04/21 16:36:50;;;;;;;1.98;1.42;;;;;;;10.12;46.43;100642.13;11423329;25;20008;-61
2024/04/21 16:41:53;;;;;;;2.13;1.92;;;;;;;10.06;46.29;100642.59;11390938;25;19997;-62
2024/04/21 16:46:56;;;;;;;1.83;1.67;;;;;;;10.06;45.96;100647.91;11409629;25;20137;-62
2024/04/21 16:51:59;;;;;;;3.63;1.52;;;;;;;9.98;46.87;100639.59;11395397;25;20378;-61
2024/04/21 16:57:08;;;;;;;;;;;;;;;10.04;47.89;100650.69;11421559;25;20817;-62
2024/04/21 17:02:23;;;;;;;2.17;1.80;;;;;;;9.98;48.09;100644.94;11405827;25;19924;-62
2024/04/21 17:07:37;;;;;;;2.65;1.63;;;;;;;10.08;48.34;100659.28;11428028;25;20020;-63
2024/04/21 17:12:40;;;;;;;2.35;1.40;;;;;;;9.91;48.43;100671.97;11392599;25;20689;-63
2024/04/21 17:17:42;;;;;;;1.63;1.42;;;;;;;9.87;48.79;100670.47;11454095;25;20019;-62
2024/04/21 17:22:45;;;;;;;2.30;1.77;;;;;;;9.90;48.54;100672.91;11442192;25;20014;-62
2024/04/21 17:27:49;;;;;;;2.65;1.60;;;;;;;9.84;48.79;100681.31;11423651;25;19999;-62
2024/04/21 17:32:51;;;;;;;3.00;2.30;;;;;;;9.62;48.92;100692.59;11432527;25;20370;-63
2024/04/21 17:37:53;;;;;;;4.22;2.40;;;;;;;9.64;48.87;100700.50;11444603;25;22844;-62
2024/04/21 17:42:55;;;;;;;2.83;2.20;;;;;;;9.66;49.33;100703.91;11435575;25;20569;-62
2024/04/21 17:47:58;;;;;;;3.33;2.08;;;;;;;9.35;49.84;100712.19;11402735;25;20091;-63
2024/04/21 17:53:00;;;;;;;3.35;2.55;;;;;;;9.39;50.02;100712.81;11461918;25;20004;-62
2024/04/21 17:58:02;;;;;;;2.10;1.90;;;;;;;9.35;50.21;100717.50;11441826;25;20008;-63
2024/04/21 18:03:07;;;;;;;3.15;1.60;;;;;;;9.26;49.91;100709.28;11463370;25;20007;-65
2024/04/21 18:08:11;;;;;;;2.70;2.05;;;;;;;9.09;50.40;100721.88;11460796;25;20083;-64
2024/04/21 18:13:14;;;;;;;1.98;1.40;;;;;;;9.01;50.38;100725.06;11470106;25;20050;-66
2024/04/21 18:18:16;;;;;;;2.50;1.70;;;;;;;9.05;50.47;100746.09;11483652;25;20009;-63
2024/04/21 18:23:18;;;;;;;2.45;1.55;;;;;;;8.97;50.62;100744.78;11476307;25;20007;-64
2024/04/21 18:28:19;;;;;;;1.88;1.40;;;;;;;8.95;50.47;100745.88;11403301;25;20552;-64
2024/04/21 18:33:21;;;;;;;2.05;1.55;;;;;;;8.53;51.34;100718.50;11436801;25;20620;-63
2024/04/21 18:38:23;;;;;;;5.10;2.38;;;;;;;8.54;51.00;100736.13;11432569;25;20001;-63
2024/04/21 18:43:28;;;;;;;3.13;1.80;;;;;;;8.59;51.80;100744.66;11457524;25;20000;-63
2024/04/21 18:48:29;;;;;;;2.95;2.42;;;;;;;8.58;52.28;100754.41;11392563;25;20006;-63
2024/04/21 18:53:31;;;;;;;3.40;2.33;;;;;;;8.44;51.93;100742.03;11461821;25;20004;-63
2024/04/21 18:58:34;;;;;;;3.58;2.70;;;;;;;8.43;52.45;100750.88;11443598;25;20015;-62
2024/04/21 19:03:36;;;;;;;5.68;3.33;;;;;;;8.43;52.95;100766.81;11457693;25;21476;-63
2024/04/21 19:08:38;;;;;;;6.55;3.40;;;;;;;8.44;53.73;100760.59;11454324;25;20020;-63
2024/04/21 19:13:42;;;;;;;6.70;4.35;;;;;;;8.35;53.97;100771.75;11452378;25;20113;-63
2024/04/21 19:18:44;;;;;;;6.00;3.92;;;;;;;8.35;54.12;100779.72;11451225;25;20000;-62
2024/04/21 19:23:47;;;;;;;5.70;3.55;;;;;;;8.34;54.44;100785.97;11454079;25;20000;-63
2024/04/21 19:28:50;;;;;;;6.07;3.72;;;;;;;8.22;54.62;100781.44;11438166;25;20013;-65
2024/04/21 19:33:52;;;;;;;4.30;3.13;;;;;;;8.13;54.56;100777.53;11443694;25;20005;-63
2024/04/21 19:38:54;;;;;;;5.88;3.47;;;;;;;8.16;55.10;100790.63;11485517;25;20765;-63
2024/04/21 19:43:55;;;;;;;4.82;3.05;;;;;;;8.10;54.83;100783.88;11461269;25;20004;-62
2024/04/21 19:48:57;;;;;;;3.08;2.40;;;;;;;8.04;55.56;100792.22;11408961;25;19996;-63
2024/04/21 19:53:59;;;;;;;2.95;2.47;;;;;;;8.07;55.07;100786.72;11469567;25;20039;-64
2024/04/21 19:59:01;;;;;;;3.63;2.20;;;;;;;8.00;55.54;100788.06;11419983;25;20455;-63
2024/04/21 20:04:03;;;;;;;2.75;2.30;;;;;;;7.79;55.67;100772.53;11482914;25;20112;-62
2024/04/21 20:09:06;;;;;;;2.90;2.47;;;;;;;7.92;55.92;100791.16;11440018;25;20303;-63
2024/04/21 20:14:08;;;;;;;2.15;1.80;;;;;;;7.83;55.83;100788.22;11417567;25;20050;-62
2024/04/21 20:19:09;;;;;;;2.60;2.05;;;;;;;7.77;56.13;100787.63;11471610;25;20010;-62
2024/04/21 20:24:11;;;;;;;2.58;1.88;;;;;;;7.74;55.63;100789.63;11464063;25;20004;-64
2024/04/21 20:29:12;;;;;;;2.35;2.13;;;;;;;7.78;55.67;100786.72;11441506;25;20040;-63
2024/04/21 20:34:14;;;;;;;2.45;2.13;;;;;;;7.68;55.61;100790.84;11454135;25;20334;-63
2024/04/21 20:39:15;;;;;;;2.10;1.90;;;;;;;7.69;56.03;100797.88;11474421;25;20000;-61
2024/04/21 20:44:18;;;;;;;2.30;2.05;;;;;;;7.68;56.05;100796.16;11417619;25;20677;-63
2024/04/21 20:49:19;;;;;;;2.42;2.08;;;;;;;7.69;55.66;100795.22;11467679;25;20009;-64
2024/04/21 20:54:21;;;;;;;2.35;1.80;;;;;;;7.40;56.31;100787.19;11472800;25;20068;-63
2024/04/21 20:59:23;;;;;;;3.40;2.17;;;;;;;7.41;56.95;100802.13;11458507;25;20083;-62
2024/04/21 21:04:24;;;;;;;2.97;1.95;;;;;;;7.44;56.26;100804.59;11471991;25;20425;-64
2024/04/21 21:09:26;;;;;;;7.28;2.92;;;;;;;7.37;55.77;100810.34;11466892;25;20006;-63
2024/04/21 21:14:30;;;;;;;3.40;2.30;;;;;;;7.33;55.78;100806.19;11474353;25;20493;-64
2024/04/21 21:19:31;;;;;;;2.33;2.10;;;;;;;7.22;56.01;100815.59;11422577;25;19992;-63
2024/04/21 21:24:33;;;;;;;2.42;2.15;;;;;;;7.20;55.84;100816.63;11446281;25;20408;-64
2024/04/21 21:29:35;;;;;;;3.88;2.30;;;;;;;7.17;55.88;100819.44;11420129;25;20913;-61
2024/04/21 21:34:38;;;;;;;2.70;2.22;;;;;;;7.18;55.52;100819.38;11364981;25;20002;-63
2024/04/21 21:39:43;;;;;;;2.72;2.10;;;;;;;7.16;55.82;100817.75;11410362;25;20598;-62
2024/04/21 21:44:45;;;;;;;2.92;2.15;;;;;;;7.00;56.28;100793.94;11402567;25;20004;-62
2024/04/21 21:49:46;;;;;;;3.28;2.17;;;;;;;7.10;55.94;100821.63;11442337;25;19996;-62
2024/04/21 21:54:48;;;;;;;2.92;2.13;;;;;;;7.14;56.22;100814.34;11358508;25;20012;-64
2024/04/21 21:59:49;;;;;;;3.33;2.05;;;;;;;7.12;56.18;100805.63;11449579;25;20016;-63
2024/04/21 22:04:53;;;;;;;2.27;1.87;;;;;;;6.98;55.64;100807.28;11427116;25;25307;-62
2024/04/21 22:09:55;;;;;;;3.28;2.42;;;;;;;7.03;55.91;100818.44;11406928;25;20028;-62
2024/04/21 22:14:57;;;;;;;2.55;1.98;;;;;;;6.97;55.56;100818.78;11379116;25;20045;-63
2024/04/21 22:19:58;;;;;;;3.25;2.35;;;;;;;6.92;55.85;100807.63;11384997;25;20017;-63
2024/04/21 22:25:01;;;;;;;3.53;2.10;;;;;;;6.82;55.74;100801.13;11350641;25;20002;-63
2024/04/21 22:30:04;;;;;;;2.95;2.40;;;;;;;6.80;56.49;100803.00;11456440;25;20005;-62
2024/04/21 22:35:05;;;;;;;3.15;2.50;;;;;;;6.76;55.53;100812.06;11380082;25;20077;-63
2024/04/21 22:40:09;;;;;;;3.05;1.65;;;;;;;6.82;56.26;100819.66;11431660;25;20411;-62
2024/04/21 22:45:10;;;;;;;2.55;1.92;;;;;;;6.71;55.73;100814.94;11434634;25;20000;-61
2024/04/21 22:50:13;;;;;;;2.60;2.40;;;;;;;6.70;56.25;100822.03;11377911;25;20045;-65
2024/04/21 22:55:15;;;;;;;2.38;2.17;;;;;;;6.67;55.69;100813.44;11467561;25;20387;-63
2024/04/21 23:00:16;;;;;;;3.22;2.22;;;;;;;6.67;56.14;100824.00;11394642;25;20006;-62
2024/04/21 23:05:18;;;;;;;3.78;2.67;;;;;;;6.57;55.56;100831.59;11407298;25;20014;-62
2024/04/21 23:10:19;;;;;;;2.30;2.00;;;;;;;6.48;56.82;100829.44;11442004;25;19998;-63
2024/04/21 23:15:21;;;;;;;4.13;2.80;;;;;;;6.40;56.54;100821.09;11447216;25;20053;-63
2024/04/21 23:20:22;;;;;;;3.88;2.40;;;;;;;6.57;55.65;100833.38;11458879;25;19997;-62
2024/04/21 23:25:24;;;;;;;2.80;1.92;;;;;;;6.49;55.43;100828.50;11464679;25;20007;-63